sensor_id;sensor_type;location;lat;lon;timestamp;P1;durP1;ratioP1;P2;durP2;ratioP2
48076;SDS011;33854;57.708;12.008;2023-02-19T00:02:08;9.23;;;1.37;;
48076;SDS011;33854;57.708;12.008;2023-02-19T00:04:33;2.43;;;0.50;;
48076;SDS011;33854;57.708;12.008;2023-02-19T00:06:59;10.83;;;1.33;;
48076;SDS011;33854;57.708;12.008;2023-02-19T00:09:24;3.63;;;0.73;;
48076;SDS011;33854;57.708;12.008;2023-02-19T00:11:50;4.20;;;0.60;;
48076;SDS011;33854;57.708;12.008;2023-02-19T00:14:16;2.23;;;0.60;;
48076;SDS011;33854;57.708;12.008;2023-02-19T00:16:44;7.13;;;1.30;;
48076;SDS011;33854;57.708;12.008;2023-02-19T00:19:14;4.73;;;0.60;;
48076;SDS011;33854;57.708;12.008;2023-02-19T00:21:41;4.35;;;0.70;;
48076;SDS011;33854;57.708;12.008;2023-02-19T00:24:07;5.53;;;0.73;;
48076;SDS011;33854;57.708;12.008;2023-02-19T00:26:36;4.82;;;0.50;;
48076;SDS011;33854;57.708;12.008;2023-02-19T00:29:02;2.80;;;0.50;;
48076;SDS011;33854;57.708;12.008;2023-02-19T00:31:29;3.70;;;0.40;;
48076;SDS011;33854;57.708;12.008;2023-02-19T00:33:58;6.00;;;1.17;;
48076;SDS011;33854;57.708;12.008;2023-02-19T00:36:26;7.07;;;1.02;;
48076;SDS011;33854;57.708;12.008;2023-02-19T00:38:52;4.45;;;0.57;;
48076;SDS011;33854;57.708;12.008;2023-02-19T00:41:18;8.75;;;0.60;;
48076;SDS011;33854;57.708;12.008;2023-02-19T00:43:46;4.70;;;0.50;;
48076;SDS011;33854;57.708;12.008;2023-02-19T00:48:38;2.17;;;0.63;;
48076;SDS011;33854;57.708;12.008;2023-02-19T00:51:03;2.10;;;0.53;;
48076;SDS011;33854;57.708;12.008;2023-02-19T00:53:28;8.53;;;0.90;;
48076;SDS011;33854;57.708;12.008;2023-02-19T00:55:54;4.87;;;0.60;;
48076;SDS011;33854;57.708;12.008;2023-02-19T00:58:19;3.33;;;0.70;;
48076;SDS011;33854;57.708;12.008;2023-02-19T01:00:45;2.80;;;0.63;;
48076;SDS011;33854;57.708;12.008;2023-02-19T01:03:12;3.20;;;0.50;;
48076;SDS011;33854;57.708;12.008;2023-02-19T01:05:37;4.17;;;0.90;;
48076;SDS011;33854;57.708;12.008;2023-02-19T01:08:03;5.10;;;0.57;;
48076;SDS011;33854;57.708;12.008;2023-02-19T01:10:29;2.33;;;0.90;;
48076;SDS011;33854;57.708;12.008;2023-02-19T01:12:55;7.22;;;0.93;;
48076;SDS011;33854;57.708;12.008;2023-02-19T01:15:20;1.67;;;0.77;;
48076;SDS011;33854;57.708;12.008;2023-02-19T01:17:46;7.93;;;0.93;;
48076;SDS011;33854;57.708;12.008;2023-02-19T01:20:11;5.43;;;1.23;;
48076;SDS011;33854;57.708;12.008;2023-02-19T01:22:36;2.50;;;0.70;;
48076;SDS011;33854;57.708;12.008;2023-02-19T01:25:02;3.00;;;0.67;;
48076;SDS011;33854;57.708;12.008;2023-02-19T01:27:27;4.60;;;0.73;;
48076;SDS011;33854;57.708;12.008;2023-02-19T01:29:53;5.87;;;1.03;;
48076;SDS011;33854;57.708;12.008;2023-02-19T01:32:18;5.43;;;0.67;;
48076;SDS011;33854;57.708;12.008;2023-02-19T01:34:43;3.13;;;0.80;;
48076;SDS011;33854;57.708;12.008;2023-02-19T01:37:09;6.43;;;0.77;;
48076;SDS011;33854;57.708;12.008;2023-02-19T01:42:03;2.55;;;0.38;;
48076;SDS011;33854;57.708;12.008;2023-02-19T01:46:54;3.53;;;0.87;;
48076;SDS011;33854;57.708;12.008;2023-02-19T01:49:24;1.85;;;0.40;;
48076;SDS011;33854;57.708;12.008;2023-02-19T01:52:03;9.50;;;0.73;;
48076;SDS011;33854;57.708;12.008;2023-02-19T01:57:05;2.90;;;0.20;;
48076;SDS011;33854;57.708;12.008;2023-02-19T01:59:35;3.80;;;0.30;;
48076;SDS011;33854;57.708;12.008;2023-02-19T02:04:28;6.67;;;0.67;;
48076;SDS011;33854;57.708;12.008;2023-02-19T02:06:55;6.95;;;0.70;;
48076;SDS011;33854;57.708;12.008;2023-02-19T02:09:24;3.05;;;0.43;;
48076;SDS011;33854;57.708;12.008;2023-02-19T02:12:11;5.20;;;0.43;;
48076;SDS011;33854;57.708;12.008;2023-02-19T02:14:38;5.40;;;0.97;;
48076;SDS011;33854;57.708;12.008;2023-02-19T02:22:17;6.75;;;0.85;;
48076;SDS011;33854;57.708;12.008;2023-02-19T02:27:37;4.38;;;0.50;;
48076;SDS011;33854;57.708;12.008;2023-02-19T02:38:13;2.20;;;0.35;;
48076;SDS011;33854;57.708;12.008;2023-02-19T02:40:42;4.18;;;0.82;;
48076;SDS011;33854;57.708;12.008;2023-02-19T02:43:09;6.18;;;0.60;;
48076;SDS011;33854;57.708;12.008;2023-02-19T02:53:19;6.82;;;1.00;;
48076;SDS011;33854;57.708;12.008;2023-02-19T02:56:05;4.45;;;0.77;;
48076;SDS011;33854;57.708;12.008;2023-02-19T02:58:34;7.50;;;0.63;;
48076;SDS011;33854;57.708;12.008;2023-02-19T03:01:01;5.60;;;0.63;;
48076;SDS011;33854;57.708;12.008;2023-02-19T03:03:50;6.22;;;0.70;;
48076;SDS011;33854;57.708;12.008;2023-02-19T03:06:22;7.57;;;0.60;;
48076;SDS011;33854;57.708;12.008;2023-02-19T03:08:54;8.52;;;0.63;;
48076;SDS011;33854;57.708;12.008;2023-02-19T03:11:21;2.40;;;0.30;;
48076;SDS011;33854;57.708;12.008;2023-02-19T03:14:07;3.08;;;0.45;;
48076;SDS011;33854;57.708;12.008;2023-02-19T03:16:56;5.00;;;0.50;;
48076;SDS011;33854;57.708;12.008;2023-02-19T03:19:47;2.67;;;0.65;;
48076;SDS011;33854;57.708;12.008;2023-02-19T03:22:18;2.50;;;0.30;;
48076;SDS011;33854;57.708;12.008;2023-02-19T03:24:51;2.30;;;0.32;;
48076;SDS011;33854;57.708;12.008;2023-02-19T03:27:41;1.70;;;0.30;;
48076;SDS011;33854;57.708;12.008;2023-02-19T03:30:13;0.93;;;0.20;;
48076;SDS011;33854;57.708;12.008;2023-02-19T03:32:47;8.07;;;0.60;;
48076;SDS011;33854;57.708;12.008;2023-02-19T03:35:19;4.40;;;0.50;;
48076;SDS011;33854;57.708;12.008;2023-02-19T03:37:51;3.40;;;0.60;;
48076;SDS011;33854;57.708;12.008;2023-02-19T03:40:25;2.03;;;0.40;;
48076;SDS011;33854;57.708;12.008;2023-02-19T03:45:30;4.60;;;0.52;;
48076;SDS011;33854;57.708;12.008;2023-02-19T03:53:29;6.22;;;0.50;;
48076;SDS011;33854;57.708;12.008;2023-02-19T03:56:02;7.28;;;0.80;;
48076;SDS011;33854;57.708;12.008;2023-02-19T03:58:43;3.13;;;0.52;;
48076;SDS011;33854;57.708;12.008;2023-02-19T04:04:15;3.17;;;0.50;;
48076;SDS011;33854;57.708;12.008;2023-02-19T04:06:44;8.15;;;0.65;;
48076;SDS011;33854;57.708;12.008;2023-02-19T04:09:16;3.88;;;0.43;;
48076;SDS011;33854;57.708;12.008;2023-02-19T04:11:44;7.88;;;0.65;;
48076;SDS011;33854;57.708;12.008;2023-02-19T04:14:14;1.60;;;0.40;;
48076;SDS011;33854;57.708;12.008;2023-02-19T04:16:45;3.47;;;0.50;;
48076;SDS011;33854;57.708;12.008;2023-02-19T04:19:16;3.33;;;0.60;;
48076;SDS011;33854;57.708;12.008;2023-02-19T04:21:44;1.80;;;0.35;;
48076;SDS011;33854;57.708;12.008;2023-02-19T04:24:13;0.65;;;0.30;;
48076;SDS011;33854;57.708;12.008;2023-02-19T04:26:43;4.57;;;0.50;;
48076;SDS011;33854;57.708;12.008;2023-02-19T04:29:09;2.88;;;0.35;;
48076;SDS011;33854;57.708;12.008;2023-02-19T04:31:35;2.93;;;0.43;;
48076;SDS011;33854;57.708;12.008;2023-02-19T04:36:28;6.63;;;0.73;;
48076;SDS011;33854;57.708;12.008;2023-02-19T04:41:19;3.63;;;0.50;;
48076;SDS011;33854;57.708;12.008;2023-02-19T04:43:45;2.50;;;0.63;;
48076;SDS011;33854;57.708;12.008;2023-02-19T04:46:10;0.53;;;0.27;;
48076;SDS011;33854;57.708;12.008;2023-02-19T04:48:36;6.60;;;0.30;;
48076;SDS011;33854;57.708;12.008;2023-02-19T04:51:07;9.60;;;0.50;;
48076;SDS011;33854;57.708;12.008;2023-02-19T04:53:34;1.75;;;0.22;;
48076;SDS011;33854;57.708;12.008;2023-02-19T04:56:11;2.05;;;0.30;;
48076;SDS011;33854;57.708;12.008;2023-02-19T04:58:38;1.83;;;0.30;;
48076;SDS011;33854;57.708;12.008;2023-02-19T05:01:04;3.63;;;0.38;;
48076;SDS011;33854;57.708;12.008;2023-02-19T05:03:30;3.33;;;0.40;;
48076;SDS011;33854;57.708;12.008;2023-02-19T05:06:00;2.28;;;0.17;;
48076;SDS011;33854;57.708;12.008;2023-02-19T05:08:27;1.92;;;0.52;;
48076;SDS011;33854;57.708;12.008;2023-02-19T05:10:55;1.67;;;0.43;;
48076;SDS011;33854;57.708;12.008;2023-02-19T05:13:22;2.83;;;0.20;;
48076;SDS011;33854;57.708;12.008;2023-02-19T05:15:58;2.40;;;0.37;;
48076;SDS011;33854;57.708;12.008;2023-02-19T05:18:25;2.28;;;0.38;;
48076;SDS011;33854;57.708;12.008;2023-02-19T05:20:52;3.42;;;0.30;;
48076;SDS011;33854;57.708;12.008;2023-02-19T05:23:18;3.03;;;0.30;;
48076;SDS011;33854;57.708;12.008;2023-02-19T05:25:44;4.38;;;0.30;;
48076;SDS011;33854;57.708;12.008;2023-02-19T05:28:10;4.93;;;0.40;;
48076;SDS011;33854;57.708;12.008;2023-02-19T05:30:42;1.52;;;0.55;;
48076;SDS011;33854;57.708;12.008;2023-02-19T05:33:12;2.40;;;0.40;;
48076;SDS011;33854;57.708;12.008;2023-02-19T05:35:47;6.03;;;0.38;;
48076;SDS011;33854;57.708;12.008;2023-02-19T05:38:15;6.03;;;0.43;;
48076;SDS011;33854;57.708;12.008;2023-02-19T05:40:42;3.00;;;0.50;;
48076;SDS011;33854;57.708;12.008;2023-02-19T05:43:08;3.50;;;0.43;;
48076;SDS011;33854;57.708;12.008;2023-02-19T05:45:34;3.83;;;0.40;;
48076;SDS011;33854;57.708;12.008;2023-02-19T05:48:00;2.70;;;0.45;;
48076;SDS011;33854;57.708;12.008;2023-02-19T05:50:26;0.60;;;0.17;;
48076;SDS011;33854;57.708;12.008;2023-02-19T05:52:52;1.80;;;0.30;;
48076;SDS011;33854;57.708;12.008;2023-02-19T05:55:18;1.80;;;0.40;;
48076;SDS011;33854;57.708;12.008;2023-02-19T05:57:44;3.07;;;0.50;;
48076;SDS011;33854;57.708;12.008;2023-02-19T06:00:11;2.88;;;0.35;;
48076;SDS011;33854;57.708;12.008;2023-02-19T06:02:39;6.22;;;0.57;;
48076;SDS011;33854;57.708;12.008;2023-02-19T06:05:05;0.43;;;0.30;;
48076;SDS011;33854;57.708;12.008;2023-02-19T06:07:31;2.85;;;0.40;;
48076;SDS011;33854;57.708;12.008;2023-02-19T06:09:57;1.90;;;0.30;;
48076;SDS011;33854;57.708;12.008;2023-02-19T06:12:22;5.53;;;0.50;;
48076;SDS011;33854;57.708;12.008;2023-02-19T06:14:48;7.03;;;0.40;;
48076;SDS011;33854;57.708;12.008;2023-02-19T06:17:14;1.88;;;0.40;;
48076;SDS011;33854;57.708;12.008;2023-02-19T06:19:40;5.33;;;0.50;;
48076;SDS011;33854;57.708;12.008;2023-02-19T06:22:05;2.00;;;0.50;;
48076;SDS011;33854;57.708;12.008;2023-02-19T06:24:31;8.73;;;0.70;;
48076;SDS011;33854;57.708;12.008;2023-02-19T06:26:57;2.57;;;0.20;;
48076;SDS011;33854;57.708;12.008;2023-02-19T06:29:23;6.97;;;0.77;;
48076;SDS011;33854;57.708;12.008;2023-02-19T06:31:49;3.03;;;0.47;;
48076;SDS011;33854;57.708;12.008;2023-02-19T06:34:14;5.23;;;0.47;;
48076;SDS011;33854;57.708;12.008;2023-02-19T06:36:39;4.00;;;0.30;;
48076;SDS011;33854;57.708;12.008;2023-02-19T06:39:05;4.20;;;0.23;;
48076;SDS011;33854;57.708;12.008;2023-02-19T06:41:31;2.97;;;0.33;;
48076;SDS011;33854;57.708;12.008;2023-02-19T06:43:56;1.50;;;0.27;;
48076;SDS011;33854;57.708;12.008;2023-02-19T06:46:22;4.38;;;0.40;;
48076;SDS011;33854;57.708;12.008;2023-02-19T06:48:48;2.73;;;0.27;;
48076;SDS011;33854;57.708;12.008;2023-02-19T06:51:14;3.43;;;0.43;;
48076;SDS011;33854;57.708;12.008;2023-02-19T06:53:51;5.10;;;0.40;;
48076;SDS011;33854;57.708;12.008;2023-02-19T06:56:24;2.83;;;0.50;;
48076;SDS011;33854;57.708;12.008;2023-02-19T06:58:50;7.70;;;0.45;;
48076;SDS011;33854;57.708;12.008;2023-02-19T07:01:16;7.97;;;0.35;;
48076;SDS011;33854;57.708;12.008;2023-02-19T07:03:41;8.67;;;0.20;;
48076;SDS011;33854;57.708;12.008;2023-02-19T07:06:07;3.30;;;0.97;;
48076;SDS011;33854;57.708;12.008;2023-02-19T07:08:32;2.97;;;0.40;;
48076;SDS011;33854;57.708;12.008;2023-02-19T07:10:58;1.50;;;0.20;;
48076;SDS011;33854;57.708;12.008;2023-02-19T07:13:24;5.07;;;0.30;;
48076;SDS011;33854;57.708;12.008;2023-02-19T07:15:51;2.05;;;0.52;;
48076;SDS011;33854;57.708;12.008;2023-02-19T07:18:21;4.13;;;0.28;;
48076;SDS011;33854;57.708;12.008;2023-02-19T07:20:47;2.33;;;0.50;;
48076;SDS011;33854;57.708;12.008;2023-02-19T07:23:12;1.80;;;0.33;;
48076;SDS011;33854;57.708;12.008;2023-02-19T07:25:38;1.20;;;0.73;;
48076;SDS011;33854;57.708;12.008;2023-02-19T07:28:04;2.87;;;0.40;;
48076;SDS011;33854;57.708;12.008;2023-02-19T07:30:30;3.28;;;0.50;;
48076;SDS011;33854;57.708;12.008;2023-02-19T07:32:55;4.97;;;0.57;;
48076;SDS011;33854;57.708;12.008;2023-02-19T07:35:20;9.40;;;0.57;;
48076;SDS011;33854;57.708;12.008;2023-02-19T07:37:46;2.07;;;0.47;;
48076;SDS011;33854;57.708;12.008;2023-02-19T07:40:12;2.10;;;0.20;;
48076;SDS011;33854;57.708;12.008;2023-02-19T07:42:37;5.43;;;0.30;;
48076;SDS011;33854;57.708;12.008;2023-02-19T07:45:02;1.37;;;0.40;;
48076;SDS011;33854;57.708;12.008;2023-02-19T07:47:28;8.47;;;0.93;;
48076;SDS011;33854;57.708;12.008;2023-02-19T07:49:54;2.37;;;0.60;;
48076;SDS011;33854;57.708;12.008;2023-02-19T07:52:19;2.33;;;0.27;;
48076;SDS011;33854;57.708;12.008;2023-02-19T07:54:44;3.17;;;0.37;;
48076;SDS011;33854;57.708;12.008;2023-02-19T07:57:10;4.47;;;0.47;;
48076;SDS011;33854;57.708;12.008;2023-02-19T07:59:35;0.87;;;0.40;;
48076;SDS011;33854;57.708;12.008;2023-02-19T08:02:01;3.37;;;0.77;;
48076;SDS011;33854;57.708;12.008;2023-02-19T08:04:48;2.50;;;0.20;;
48076;SDS011;33854;57.708;12.008;2023-02-19T08:07:13;4.05;;;0.55;;
48076;SDS011;33854;57.708;12.008;2023-02-19T08:09:39;1.87;;;0.50;;
48076;SDS011;33854;57.708;12.008;2023-02-19T08:12:04;3.80;;;0.50;;
48076;SDS011;33854;57.708;12.008;2023-02-19T08:14:48;9.05;;;0.40;;
48076;SDS011;33854;57.708;12.008;2023-02-19T08:17:14;2.27;;;0.40;;
48076;SDS011;33854;57.708;12.008;2023-02-19T08:19:39;4.00;;;0.67;;
48076;SDS011;33854;57.708;12.008;2023-02-19T08:22:05;3.23;;;0.33;;
48076;SDS011;33854;57.708;12.008;2023-02-19T08:24:30;4.57;;;0.50;;
48076;SDS011;33854;57.708;12.008;2023-02-19T08:26:57;3.50;;;0.30;;
48076;SDS011;33854;57.708;12.008;2023-02-19T08:29:23;3.13;;;0.63;;
48076;SDS011;33854;57.708;12.008;2023-02-19T08:31:49;2.00;;;0.47;;
48076;SDS011;33854;57.708;12.008;2023-02-19T08:34:14;3.03;;;0.50;;
48076;SDS011;33854;57.708;12.008;2023-02-19T08:36:39;2.27;;;0.30;;
48076;SDS011;33854;57.708;12.008;2023-02-19T08:39:05;3.00;;;0.30;;
48076;SDS011;33854;57.708;12.008;2023-02-19T08:41:30;4.40;;;0.17;;
48076;SDS011;33854;57.708;12.008;2023-02-19T08:43:56;2.67;;;0.20;;
48076;SDS011;33854;57.708;12.008;2023-02-19T08:46:21;2.97;;;0.40;;
48076;SDS011;33854;57.708;12.008;2023-02-19T08:48:46;2.90;;;0.43;;
48076;SDS011;33854;57.708;12.008;2023-02-19T08:51:12;2.13;;;0.30;;
48076;SDS011;33854;57.708;12.008;2023-02-19T08:53:38;4.07;;;0.67;;
48076;SDS011;33854;57.708;12.008;2023-02-19T08:58:34;3.53;;;0.40;;
48076;SDS011;33854;57.708;12.008;2023-02-19T09:01:01;3.90;;;0.30;;
48076;SDS011;33854;57.708;12.008;2023-02-19T09:03:27;4.35;;;0.85;;
48076;SDS011;33854;57.708;12.008;2023-02-19T09:05:52;8.23;;;0.73;;
48076;SDS011;33854;57.708;12.008;2023-02-19T09:08:18;12.13;;;0.63;;
48076;SDS011;33854;57.708;12.008;2023-02-19T09:10:43;5.70;;;0.30;;
48076;SDS011;33854;57.708;12.008;2023-02-19T09:13:09;2.37;;;0.40;;
48076;SDS011;33854;57.708;12.008;2023-02-19T09:15:36;3.83;;;0.33;;
48076;SDS011;33854;57.708;12.008;2023-02-19T09:18:02;9.38;;;0.77;;
48076;SDS011;33854;57.708;12.008;2023-02-19T09:20:27;2.70;;;0.63;;
48076;SDS011;33854;57.708;12.008;2023-02-19T09:22:56;6.70;;;0.70;;
48076;SDS011;33854;57.708;12.008;2023-02-19T09:25:23;2.80;;;0.28;;
48076;SDS011;33854;57.708;12.008;2023-02-19T09:27:49;2.75;;;0.40;;
48076;SDS011;33854;57.708;12.008;2023-02-19T09:30:17;3.17;;;0.40;;
48076;SDS011;33854;57.708;12.008;2023-02-19T09:32:43;3.43;;;0.40;;
48076;SDS011;33854;57.708;12.008;2023-02-19T09:35:08;4.10;;;0.33;;
48076;SDS011;33854;57.708;12.008;2023-02-19T09:37:34;3.20;;;0.50;;
48076;SDS011;33854;57.708;12.008;2023-02-19T09:39:59;2.27;;;0.50;;
48076;SDS011;33854;57.708;12.008;2023-02-19T09:42:26;4.60;;;0.47;;
48076;SDS011;33854;57.708;12.008;2023-02-19T09:44:57;3.80;;;0.35;;
48076;SDS011;33854;57.708;12.008;2023-02-19T09:47:28;6.78;;;0.50;;
48076;SDS011;33854;57.708;12.008;2023-02-19T09:49:59;2.65;;;0.40;;
48076;SDS011;33854;57.708;12.008;2023-02-19T09:55:04;2.72;;;0.25;;
48076;SDS011;33854;57.708;12.008;2023-02-19T09:57:39;6.18;;;0.57;;
48076;SDS011;33854;57.708;12.008;2023-02-19T10:02:35;3.90;;;0.32;;
48076;SDS011;33854;57.708;12.008;2023-02-19T10:05:01;3.47;;;0.40;;
48076;SDS011;33854;57.708;12.008;2023-02-19T10:07:36;6.72;;;0.32;;
48076;SDS011;33854;57.708;12.008;2023-02-19T10:12:48;4.30;;;0.45;;
48076;SDS011;33854;57.708;12.008;2023-02-19T10:15:18;3.72;;;0.50;;
48076;SDS011;33854;57.708;12.008;2023-02-19T10:17:50;4.38;;;0.82;;
48076;SDS011;33854;57.708;12.008;2023-02-19T10:20:17;2.47;;;0.50;;
48076;SDS011;33854;57.708;12.008;2023-02-19T10:22:46;3.15;;;0.35;;
48076;SDS011;33854;57.708;12.008;2023-02-19T10:25:13;8.20;;;0.30;;
48076;SDS011;33854;57.708;12.008;2023-02-19T10:27:40;3.30;;;0.45;;
48076;SDS011;33854;57.708;12.008;2023-02-19T10:30:06;6.28;;;0.32;;
48076;SDS011;33854;57.708;12.008;2023-02-19T10:36:24;4.25;;;0.50;;
48076;SDS011;33854;57.708;12.008;2023-02-19T10:38:35;4.22;;;0.70;;
48076;SDS011;33854;57.708;12.008;2023-02-19T10:41:10;8.50;;;1.02;;
48076;SDS011;33854;57.708;12.008;2023-02-19T10:43:42;5.47;;;0.45;;
48076;SDS011;33854;57.708;12.008;2023-02-19T10:46:20;4.05;;;0.70;;
48076;SDS011;33854;57.708;12.008;2023-02-19T10:48:52;13.00;;;1.02;;
48076;SDS011;33854;57.708;12.008;2023-02-19T10:51:37;3.22;;;0.30;;
48076;SDS011;33854;57.708;12.008;2023-02-19T10:54:15;2.17;;;0.20;;
48076;SDS011;33854;57.708;12.008;2023-02-19T10:56:45;3.47;;;0.20;;
48076;SDS011;33854;57.708;12.008;2023-02-19T11:04:24;2.45;;;1.00;;
48076;SDS011;33854;57.708;12.008;2023-02-19T11:06:50;1.27;;;0.43;;
48076;SDS011;33854;57.708;12.008;2023-02-19T11:09:26;2.50;;;0.40;;
48076;SDS011;33854;57.708;12.008;2023-02-19T11:11:57;6.30;;;0.50;;
48076;SDS011;33854;57.708;12.008;2023-02-19T11:14:23;3.15;;;0.63;;
48076;SDS011;33854;57.708;12.008;2023-02-19T11:16:53;8.45;;;0.98;;
48076;SDS011;33854;57.708;12.008;2023-02-19T11:21:52;4.25;;;0.60;;
48076;SDS011;33854;57.708;12.008;2023-02-19T11:24:40;7.65;;;0.82;;
48076;SDS011;33854;57.708;12.008;2023-02-19T11:27:05;3.83;;;0.63;;
48076;SDS011;33854;57.708;12.008;2023-02-19T11:29:40;3.97;;;0.30;;
48076;SDS011;33854;57.708;12.008;2023-02-19T11:32:15;4.07;;;0.20;;
48076;SDS011;33854;57.708;12.008;2023-02-19T11:34:50;3.10;;;0.55;;
48076;SDS011;33854;57.708;12.008;2023-02-19T11:39:45;5.28;;;0.50;;
48076;SDS011;33854;57.708;12.008;2023-02-19T11:51:04;7.68;;;0.40;;
48076;SDS011;33854;57.708;12.008;2023-02-19T11:53:46;7.68;;;0.60;;
48076;SDS011;33854;57.708;12.008;2023-02-19T11:56:17;6.90;;;0.55;;
48076;SDS011;33854;57.708;12.008;2023-02-19T11:59:11;1.75;;;0.30;;
48076;SDS011;33854;57.708;12.008;2023-02-19T12:01:52;3.03;;;0.30;;
48076;SDS011;33854;57.708;12.008;2023-02-19T12:07:32;1.87;;;0.30;;
48076;SDS011;33854;57.708;12.008;2023-02-19T12:18:13;0.30;;;0.00;;
48076;SDS011;33854;57.708;12.008;2023-02-19T12:26:28;3.05;;;0.20;;
48076;SDS011;33854;57.708;12.008;2023-02-19T12:40:10;2.25;;;0.43;;
48076;SDS011;33854;57.708;12.008;2023-02-19T12:45:39;1.83;;;0.50;;
48076;SDS011;33854;57.708;12.008;2023-02-19T12:50:36;3.30;;;0.53;;
48076;SDS011;33854;57.708;12.008;2023-02-19T12:53:05;3.13;;;0.40;;
48076;SDS011;33854;57.708;12.008;2023-02-19T12:55:41;2.33;;;0.45;;
48076;SDS011;33854;57.708;12.008;2023-02-19T12:58:15;4.30;;;0.60;;
48076;SDS011;33854;57.708;12.008;2023-02-19T13:01:03;3.72;;;0.77;;
48076;SDS011;33854;57.708;12.008;2023-02-19T13:03:33;1.88;;;0.70;;
48076;SDS011;33854;57.708;12.008;2023-02-19T13:08:50;3.80;;;0.90;;
48076;SDS011;33854;57.708;12.008;2023-02-19T13:11:30;4.15;;;1.08;;
48076;SDS011;33854;57.708;12.008;2023-02-19T13:16:44;9.10;;;0.63;;
48076;SDS011;33854;57.708;12.008;2023-02-19T13:19:14;4.05;;;0.90;;
48076;SDS011;33854;57.708;12.008;2023-02-19T13:21:40;5.30;;;0.70;;
48076;SDS011;33854;57.708;12.008;2023-02-19T13:24:30;4.45;;;0.40;;
48076;SDS011;33854;57.708;12.008;2023-02-19T13:30:09;4.32;;;0.60;;
48076;SDS011;33854;57.708;12.008;2023-02-19T13:38:07;5.90;;;0.68;;
48076;SDS011;33854;57.708;12.008;2023-02-19T13:40:37;5.10;;;0.77;;
48076;SDS011;33854;57.708;12.008;2023-02-19T13:43:05;2.67;;;0.70;;
48076;SDS011;33854;57.708;12.008;2023-02-19T13:45:41;4.15;;;0.65;;
48076;SDS011;33854;57.708;12.008;2023-02-19T14:02:22;11.88;;;1.67;;
48076;SDS011;33854;57.708;12.008;2023-02-19T14:17:23;17.30;;;2.55;;
48076;SDS011;33854;57.708;12.008;2023-02-19T14:20:02;20.73;;;2.65;;
48076;SDS011;33854;57.708;12.008;2023-02-19T14:30:53;25.55;;;2.78;;
48076;SDS011;33854;57.708;12.008;2023-02-19T14:33:32;24.70;;;2.88;;
48076;SDS011;33854;57.708;12.008;2023-02-19T14:36:04;20.48;;;2.70;;
48076;SDS011;33854;57.708;12.008;2023-02-19T14:38:45;19.13;;;2.95;;
48076;SDS011;33854;57.708;12.008;2023-02-19T14:43:41;23.08;;;2.83;;
48076;SDS011;33854;57.708;12.008;2023-02-19T14:46:17;18.42;;;2.85;;
48076;SDS011;33854;57.708;12.008;2023-02-19T14:49:06;21.15;;;3.08;;
48076;SDS011;33854;57.708;12.008;2023-02-19T14:51:39;22.38;;;3.30;;
48076;SDS011;33854;57.708;12.008;2023-02-19T14:54:10;23.40;;;2.78;;
48076;SDS011;33854;57.708;12.008;2023-02-19T14:56:41;28.33;;;3.72;;
48076;SDS011;33854;57.708;12.008;2023-02-19T15:01:54;27.05;;;2.70;;
48076;SDS011;33854;57.708;12.008;2023-02-19T15:04:20;24.95;;;3.47;;
48076;SDS011;33854;57.708;12.008;2023-02-19T15:06:55;15.52;;;2.90;;
48076;SDS011;33854;57.708;12.008;2023-02-19T15:09:28;25.05;;;3.20;;
48076;SDS011;33854;57.708;12.008;2023-02-19T15:11:56;27.15;;;3.42;;
48076;SDS011;33854;57.708;12.008;2023-02-19T15:14:22;15.00;;;2.35;;
48076;SDS011;33854;57.708;12.008;2023-02-19T15:16:54;31.92;;;5.82;;
48076;SDS011;33854;57.708;12.008;2023-02-19T15:19:26;19.58;;;3.75;;
48076;SDS011;33854;57.708;12.008;2023-02-19T15:21:53;22.38;;;2.42;;
48076;SDS011;33854;57.708;12.008;2023-02-19T15:24:19;25.92;;;3.08;;
48076;SDS011;33854;57.708;12.008;2023-02-19T15:26:46;24.53;;;3.63;;
48076;SDS011;33854;57.708;12.008;2023-02-19T15:29:16;26.92;;;2.50;;
48076;SDS011;33854;57.708;12.008;2023-02-19T15:31:53;22.58;;;2.90;;
48076;SDS011;33854;57.708;12.008;2023-02-19T15:34:21;20.70;;;3.13;;
48076;SDS011;33854;57.708;12.008;2023-02-19T15:37:00;25.13;;;3.05;;
48076;SDS011;33854;57.708;12.008;2023-02-19T15:39:38;19.15;;;2.63;;
48076;SDS011;33854;57.708;12.008;2023-02-19T15:42:08;19.73;;;2.70;;
48076;SDS011;33854;57.708;12.008;2023-02-19T15:47:42;25.90;;;3.05;;
48076;SDS011;33854;57.708;12.008;2023-02-19T15:55:27;31.50;;;3.70;;
48076;SDS011;33854;57.708;12.008;2023-02-19T16:00:49;25.98;;;3.35;;
48076;SDS011;33854;57.708;12.008;2023-02-19T16:03:23;29.17;;;3.80;;
48076;SDS011;33854;57.708;12.008;2023-02-19T16:06:04;25.85;;;3.30;;
48076;SDS011;33854;57.708;12.008;2023-02-19T16:08:39;29.85;;;3.00;;
48076;SDS011;33854;57.708;12.008;2023-02-19T16:11:24;17.30;;;2.20;;
48076;SDS011;33854;57.708;12.008;2023-02-19T16:13:52;35.00;;;4.13;;
48076;SDS011;33854;57.708;12.008;2023-02-19T16:16:38;18.98;;;3.08;;
48076;SDS011;33854;57.708;12.008;2023-02-19T16:19:05;31.92;;;4.32;;
48076;SDS011;33854;57.708;12.008;2023-02-19T16:21:31;26.15;;;3.47;;
48076;SDS011;33854;57.708;12.008;2023-02-19T16:24:03;31.63;;;3.07;;
48076;SDS011;33854;57.708;12.008;2023-02-19T16:26:39;35.08;;;4.15;;
48076;SDS011;33854;57.708;12.008;2023-02-19T16:29:15;31.02;;;3.55;;
48076;SDS011;33854;57.708;12.008;2023-02-19T16:31:56;23.70;;;2.90;;
48076;SDS011;33854;57.708;12.008;2023-02-19T16:34:31;26.35;;;3.30;;
48076;SDS011;33854;57.708;12.008;2023-02-19T16:36:58;26.20;;;3.42;;
48076;SDS011;33854;57.708;12.008;2023-02-19T16:39:27;26.50;;;3.90;;
48076;SDS011;33854;57.708;12.008;2023-02-19T16:46:59;22.30;;;2.93;;
48076;SDS011;33854;57.708;12.008;2023-02-19T16:49:28;35.92;;;3.20;;
48076;SDS011;33854;57.708;12.008;2023-02-19T16:51:54;33.10;;;3.78;;
48076;SDS011;33854;57.708;12.008;2023-02-19T16:54:22;33.92;;;4.68;;
48076;SDS011;33854;57.708;12.008;2023-02-19T16:56:47;31.77;;;3.90;;
48076;SDS011;33854;57.708;12.008;2023-02-19T16:59:13;27.23;;;3.63;;
48076;SDS011;33854;57.708;12.008;2023-02-19T17:01:38;36.47;;;4.20;;
48076;SDS011;33854;57.708;12.008;2023-02-19T17:04:06;37.90;;;4.67;;
48076;SDS011;33854;57.708;12.008;2023-02-19T17:06:34;28.80;;;3.05;;
48076;SDS011;33854;57.708;12.008;2023-02-19T17:09:02;30.90;;;3.72;;
48076;SDS011;33854;57.708;12.008;2023-02-19T17:11:28;30.02;;;3.17;;
48076;SDS011;33854;57.708;12.008;2023-02-19T17:13:54;29.67;;;3.45;;
48076;SDS011;33854;57.708;12.008;2023-02-19T17:16:24;30.80;;;3.50;;
48076;SDS011;33854;57.708;12.008;2023-02-19T17:18:54;28.70;;;3.50;;
48076;SDS011;33854;57.708;12.008;2023-02-19T17:21:26;20.77;;;3.53;;
48076;SDS011;33854;57.708;12.008;2023-02-19T17:23:53;40.40;;;3.80;;
48076;SDS011;33854;57.708;12.008;2023-02-19T17:26:22;26.85;;;3.42;;
48076;SDS011;33854;57.708;12.008;2023-02-19T17:28:51;28.67;;;3.65;;
48076;SDS011;33854;57.708;12.008;2023-02-19T17:31:17;30.58;;;3.10;;
48076;SDS011;33854;57.708;12.008;2023-02-19T17:33:43;25.67;;;2.83;;
48076;SDS011;33854;57.708;12.008;2023-02-19T17:36:15;26.43;;;2.97;;
48076;SDS011;33854;57.708;12.008;2023-02-19T17:38:46;21.15;;;3.42;;
48076;SDS011;33854;57.708;12.008;2023-02-19T17:41:11;31.90;;;4.23;;
48076;SDS011;33854;57.708;12.008;2023-02-19T17:43:36;32.30;;;4.13;;
48076;SDS011;33854;57.708;12.008;2023-02-19T17:46:02;33.70;;;4.03;;
48076;SDS011;33854;57.708;12.008;2023-02-19T17:48:28;26.27;;;3.67;;
48076;SDS011;33854;57.708;12.008;2023-02-19T17:50:53;25.13;;;3.63;;
48076;SDS011;33854;57.708;12.008;2023-02-19T17:53:19;34.37;;;4.07;;